createdAt,value
2022-10-16T00:00:01.031Z,22.01
2022-10-16T00:01:15.886Z,22.04
2022-10-16T00:02:17.801Z,22.01
2022-10-16T00:03:19.601Z,22.02
2022-10-16T00:04:21.302Z,22.01
2022-10-16T00:05:23.058Z,22.00
2022-10-16T00:06:26.689Z,22.01
2022-10-16T00:07:28.648Z,22.00
2022-10-16T00:08:31.735Z,22.02
2022-10-16T00:09:33.446Z,22.03
2022-10-16T00:10:36.366Z,22.01
2022-10-16T00:11:40.880Z,22.01
2022-10-16T00:12:42.707Z,22.00
2022-10-16T00:13:47.087Z,22.02
2022-10-16T00:14:48.871Z,22.00
2022-10-16T00:15:50.591Z,22.01
2022-10-16T00:16:52.327Z,22.00
2022-10-16T00:17:54.142Z,21.99
2022-10-16T00:18:56.530Z,22.00
2022-10-16T00:19:58.294Z,21.99
2022-10-16T00:21:06.858Z,21.98
2022-10-16T00:22:08.637Z,21.95
2022-10-16T00:23:11.422Z,21.97
2022-10-16T00:24:13.285Z,21.97
2022-10-16T00:25:15.168Z,21.96
2022-10-16T00:26:18.458Z,21.93
2022-10-16T00:27:20.203Z,21.93
2022-10-16T00:28:22.013Z,21.92
2022-10-16T00:29:23.984Z,21.93
2022-10-16T00:30:27.815Z,21.91
2022-10-16T00:31:30.470Z,21.91
2022-10-16T00:32:32.175Z,21.92
2022-10-16T00:33:35.469Z,21.90
2022-10-16T00:34:37.308Z,21.90
2022-10-16T00:35:39.015Z,21.91
2022-10-16T00:36:40.725Z,21.90
2022-10-16T00:37:42.487Z,21.90
2022-10-16T00:38:45.002Z,21.89
2022-10-16T00:39:46.751Z,21.89
2022-10-16T00:40:48.460Z,21.90
2022-10-16T00:41:50.508Z,21.89
2022-10-16T00:42:52.246Z,21.91
2022-10-16T00:43:59.916Z,21.90
2022-10-16T00:45:02.046Z,21.90
2022-10-16T00:46:31.168Z,21.90
2022-10-16T00:47:49.971Z,21.90
2022-10-16T00:49:19.327Z,21.92
2022-10-16T00:50:35.016Z,21.92
2022-10-16T00:51:46.576Z,21.91
2022-10-16T00:52:51.643Z,21.91
2022-10-16T00:53:53.914Z,21.90
2022-10-16T00:54:57.408Z,21.90
2022-10-16T00:55:59.320Z,21.90
2022-10-16T00:57:06.150Z,21.91
2022-10-16T00:58:08.079Z,21.91
2022-10-16T00:59:27.108Z,21.90
2022-10-16T01:00:28.854Z,21.91
2022-10-16T01:01:30.719Z,21.90
2022-10-16T01:02:32.722Z,21.90
2022-10-16T01:03:37.355Z,21.91
2022-10-16T01:04:44.488Z,21.93
2022-10-16T01:06:05.607Z,21.92
2022-10-16T01:07:31.476Z,21.91
2022-10-16T01:09:10.455Z,21.89
2022-10-16T01:10:24.192Z,21.90
2022-10-16T01:12:01.940Z,21.87
2022-10-16T01:13:24.839Z,21.89
2022-10-16T01:14:48.874Z,21.89
2022-10-16T01:16:16.792Z,21.90
2022-10-16T01:17:38.160Z,21.90
2022-10-16T01:19:19.305Z,21.90
2022-10-16T01:20:46.677Z,21.91
2022-10-16T01:21:54.124Z,21.90
2022-10-16T01:23:42.301Z,21.90
2022-10-16T01:24:51.401Z,21.87
2022-10-16T01:26:26.646Z,21.86
2022-10-16T01:27:33.549Z,21.84
2022-10-16T01:29:07.678Z,21.85
2022-10-16T01:30:22.715Z,21.86
2022-10-16T01:31:35.207Z,21.84
2022-10-16T01:32:47.261Z,21.84
2022-10-16T01:34:04.393Z,21.85
2022-10-16T01:35:22.244Z,21.86
2022-10-16T01:36:33.495Z,21.85
2022-10-16T01:37:46.905Z,21.86
2022-10-16T01:38:54.673Z,21.85
2022-10-16T01:40:03.530Z,21.85
2022-10-16T01:41:19.511Z,21.86
2022-10-16T01:42:29.255Z,21.86
2022-10-16T01:44:07.732Z,21.86
2022-10-16T01:45:14.278Z,21.86
2022-10-16T01:46:21.103Z,21.85
2022-10-16T01:47:26.573Z,21.86
2022-10-16T01:48:30.805Z,21.85
2022-10-16T01:49:37.199Z,21.86
2022-10-16T01:50:44.139Z,21.88
2022-10-16T01:51:53.119Z,21.87
2022-10-16T01:52:57.647Z,21.87
2022-10-16T01:54:03.434Z,21.89
2022-10-16T01:55:09.402Z,21.87
2022-10-16T01:56:16.097Z,21.89
2022-10-16T01:57:21.226Z,21.88
2022-10-16T01:58:26.161Z,21.86
2022-10-16T01:59:34.039Z,21.89
2022-10-16T02:00:40.907Z,21.87
2022-10-16T02:01:50.892Z,21.87
2022-10-16T02:02:56.133Z,21.88
2022-10-16T02:04:16.387Z,21.88
2022-10-16T02:05:31.902Z,21.88
2022-10-16T02:06:33.655Z,21.88
2022-10-16T02:07:35.430Z,21.88
2022-10-16T02:08:37.629Z,21.88
2022-10-16T02:09:40.204Z,21.86
2022-10-16T02:10:42.643Z,21.86
2022-10-16T02:11:45.451Z,21.85
2022-10-16T02:12:57.388Z,21.88
2022-10-16T02:14:07.193Z,21.88
2022-10-16T02:15:09.523Z,21.88
2022-10-16T02:16:14.191Z,21.89
2022-10-16T02:17:18.484Z,21.88
2022-10-16T02:18:21.244Z,21.88
2022-10-16T02:19:23.519Z,21.89
2022-10-16T02:20:33.541Z,21.91
2022-10-16T02:21:49.741Z,21.91
2022-10-16T02:22:54.894Z,21.91
2022-10-16T02:24:33.607Z,21.92
2022-10-16T02:25:43.205Z,21.95
2022-10-16T02:27:25.387Z,21.94
2022-10-16T02:28:43.131Z,21.94
2022-10-16T02:29:52.297Z,21.93
2022-10-16T02:31:19.775Z,21.94
2022-10-16T02:32:28.230Z,21.96
2022-10-16T02:33:32.676Z,21.95
2022-10-16T02:34:36.947Z,21.93
2022-10-16T02:35:39.781Z,21.96
2022-10-16T02:36:45.532Z,21.97
2022-10-16T02:37:50.024Z,21.96
2022-10-16T02:38:53.436Z,21.96
2022-10-16T02:39:58.943Z,21.95
2022-10-16T02:41:00.800Z,21.92
2022-10-16T02:42:03.211Z,21.93
2022-10-16T02:43:06.232Z,21.94
2022-10-16T02:44:08.028Z,21.94
2022-10-16T02:45:12.336Z,21.95
2022-10-16T02:46:14.217Z,21.94
2022-10-16T02:47:16.030Z,21.93
2022-10-16T02:48:17.790Z,21.93
2022-10-16T02:49:19.670Z,21.94
2022-10-16T02:50:21.604Z,21.92
2022-10-16T02:51:23.304Z,21.91
2022-10-16T02:52:25.364Z,21.91
2022-10-16T02:53:27.356Z,21.90
2022-10-16T02:54:29.100Z,21.93
2022-10-16T02:55:30.892Z,21.92
2022-10-16T02:56:32.766Z,21.93
2022-10-16T02:57:34.552Z,21.93
2022-10-16T02:58:36.343Z,21.94
2022-10-16T02:59:38.457Z,21.93
2022-10-16T03:00:40.276Z,21.93
2022-10-16T03:01:41.993Z,21.94
2022-10-16T03:02:44.240Z,21.95
2022-10-16T03:03:45.981Z,21.97
2022-10-16T03:04:47.673Z,21.97
2022-10-16T03:05:49.413Z,21.98
2022-10-16T03:06:51.168Z,21.98
2022-10-16T03:07:53.621Z,22.00
2022-10-16T03:08:55.323Z,21.99
2022-10-16T03:09:57.110Z,22.00
2022-10-16T03:10:58.813Z,22.01
2022-10-16T03:12:00.730Z,22.01
2022-10-16T03:13:02.477Z,22.02
2022-10-16T03:14:04.193Z,22.00
2022-10-16T03:15:07.739Z,22.01
2022-10-16T03:16:09.502Z,22.00
2022-10-16T03:17:11.211Z,22.02
2022-10-16T03:18:13.288Z,22.01
2022-10-16T03:19:17.216Z,22.01
2022-10-16T03:20:18.927Z,22.01
2022-10-16T03:21:20.663Z,22.00
2022-10-16T03:22:22.395Z,22.00
2022-10-16T03:23:24.240Z,22.00
2022-10-16T03:24:25.993Z,21.98
2022-10-16T03:25:27.710Z,21.98
2022-10-16T03:26:29.415Z,22.00
2022-10-16T03:27:31.156Z,22.01
2022-10-16T03:28:33.021Z,22.00
2022-10-16T03:29:35.066Z,21.98
2022-10-16T03:30:36.791Z,21.98
2022-10-16T03:31:38.535Z,21.98
2022-10-16T03:32:40.255Z,21.97
2022-10-16T03:33:42.102Z,21.96
2022-10-16T03:34:43.994Z,21.96
2022-10-16T03:35:54.146Z,21.95
2022-10-16T03:36:56.402Z,21.95
2022-10-16T03:37:58.163Z,21.96
2022-10-16T03:38:59.989Z,21.94
2022-10-16T03:40:02.187Z,21.93
2022-10-16T03:41:04.907Z,21.92
2022-10-16T03:42:06.676Z,21.91
2022-10-16T03:43:08.444Z,21.93
2022-10-16T03:44:10.453Z,21.91
2022-10-16T03:45:12.903Z,21.90
2022-10-16T03:46:14.693Z,21.91
2022-10-16T03:47:16.457Z,21.91
2022-10-16T03:48:19.935Z,21.92
2022-10-16T03:49:21.658Z,21.90
2022-10-16T03:50:23.357Z,21.90
2022-10-16T03:51:25.288Z,21.90
2022-10-16T03:52:27.475Z,21.90
2022-10-16T03:53:29.202Z,21.89
2022-10-16T03:54:30.935Z,21.90
2022-10-16T03:55:32.668Z,21.89
2022-10-16T03:56:34.430Z,21.89
2022-10-16T03:57:36.150Z,21.88
2022-10-16T03:58:37.877Z,21.89
2022-10-16T03:59:39.598Z,21.90
2022-10-16T04:00:45.871Z,21.90
2022-10-16T04:01:47.624Z,21.90
2022-10-16T04:02:49.326Z,21.91
2022-10-16T04:03:51.046Z,21.90
2022-10-16T04:04:52.749Z,21.91
2022-10-16T04:05:54.458Z,21.89
2022-10-16T04:06:56.164Z,21.90
2022-10-16T04:07:57.881Z,21.91
2022-10-16T04:08:59.739Z,21.90
2022-10-16T04:10:01.717Z,21.90
2022-10-16T04:11:04.344Z,21.92
2022-10-16T04:12:06.107Z,21.92
2022-10-16T04:13:07.822Z,21.91
2022-10-16T04:14:09.728Z,21.90
2022-10-16T04:15:11.559Z,21.90
2022-10-16T04:16:13.355Z,21.92
2022-10-16T04:17:15.132Z,21.92
2022-10-16T04:18:16.833Z,21.92
2022-10-16T04:19:18.559Z,21.92
2022-10-16T04:20:20.340Z,21.90
2022-10-16T04:21:22.192Z,21.91
2022-10-16T04:22:24.031Z,21.92
2022-10-16T04:23:25.865Z,21.92
2022-10-16T04:24:27.589Z,21.92
2022-10-16T04:25:29.775Z,21.92
2022-10-16T04:26:31.677Z,21.93
2022-10-16T04:27:33.634Z,21.91
2022-10-16T04:28:35.404Z,21.91
2022-10-16T04:29:37.159Z,21.90
2022-10-16T04:30:40.081Z,21.91
2022-10-16T04:31:41.896Z,21.89
2022-10-16T04:32:43.589Z,21.91
2022-10-16T04:33:45.486Z,21.91
2022-10-16T04:34:47.201Z,21.92
2022-10-16T04:35:48.900Z,21.89
2022-10-16T04:36:50.884Z,21.90
2022-10-16T04:37:52.632Z,21.90
2022-10-16T04:38:54.735Z,21.92
2022-10-16T04:39:56.511Z,21.89
2022-10-16T04:40:58.327Z,21.90
2022-10-16T04:42:00.117Z,21.89
2022-10-16T04:43:01.817Z,21.90
2022-10-16T04:44:03.566Z,21.89
2022-10-16T04:45:07.238Z,21.90
2022-10-16T04:46:08.976Z,21.89
2022-10-16T04:47:10.712Z,21.91
2022-10-16T04:48:12.700Z,21.88
2022-10-16T04:49:14.411Z,21.88
2022-10-16T04:50:16.205Z,21.90
2022-10-16T04:51:19.575Z,21.86
2022-10-16T04:52:22.540Z,21.86
2022-10-16T04:53:24.507Z,21.86
2022-10-16T04:54:26.199Z,21.86
2022-10-16T04:55:27.976Z,21.86
2022-10-16T04:56:29.740Z,21.83
2022-10-16T04:57:31.488Z,21.84
2022-10-16T04:58:33.968Z,21.84
2022-10-16T04:59:35.676Z,21.85
2022-10-16T05:00:39.114Z,21.85
2022-10-16T05:01:41.408Z,21.85
2022-10-16T05:02:43.174Z,21.85
2022-10-16T05:03:44.963Z,21.84
2022-10-16T05:04:46.853Z,21.84
2022-10-16T05:05:48.833Z,21.85
2022-10-16T05:06:50.535Z,21.83
2022-10-16T05:07:52.688Z,21.83
2022-10-16T05:08:54.563Z,21.79
2022-10-16T05:09:56.276Z,21.79
2022-10-16T05:10:57.998Z,21.77
2022-10-16T05:11:59.743Z,21.77
2022-10-16T05:13:01.461Z,21.78
2022-10-16T05:14:03.984Z,21.79
2022-10-16T05:15:06.616Z,21.81
2022-10-16T05:16:08.370Z,21.80
2022-10-16T05:17:10.138Z,21.79
2022-10-16T05:18:11.868Z,21.80
2022-10-16T05:19:29.233Z,21.78
2022-10-16T05:20:31.104Z,21.79
2022-10-16T05:21:32.851Z,21.78
2022-10-16T05:22:34.562Z,21.79
2022-10-16T05:23:36.261Z,21.77
2022-10-16T05:24:37.990Z,21.78
2022-10-16T05:25:39.741Z,21.77
2022-10-16T05:26:41.466Z,21.77
2022-10-16T05:27:43.317Z,21.79
2022-10-16T05:28:45.091Z,21.78
2022-10-16T05:29:48.325Z,21.79
2022-10-16T05:30:50.068Z,21.80
2022-10-16T05:31:54.224Z,21.81
2022-10-16T05:32:56.075Z,21.83
2022-10-16T05:34:01.539Z,21.83
2022-10-16T05:35:04.226Z,21.83
2022-10-16T05:36:10.252Z,21.85
2022-10-16T05:37:13.110Z,21.84
2022-10-16T05:38:15.171Z,21.85
2022-10-16T05:39:17.447Z,21.86
2022-10-16T05:40:19.211Z,21.87
2022-10-16T05:41:22.574Z,21.86
2022-10-16T05:42:24.469Z,21.88
2022-10-16T05:43:27.899Z,21.87
2022-10-16T05:44:29.646Z,21.87
2022-10-16T05:45:31.414Z,21.85
2022-10-16T05:46:34.165Z,21.86
2022-10-16T05:47:35.861Z,21.85
2022-10-16T05:48:37.571Z,21.87
2022-10-16T05:49:41.361Z,21.88
2022-10-16T05:50:43.344Z,21.88
2022-10-16T05:51:45.164Z,21.90
2022-10-16T05:52:46.908Z,21.88
2022-10-16T05:53:48.648Z,21.89
2022-10-16T05:54:50.624Z,21.89
2022-10-16T05:55:59.389Z,21.91
2022-10-16T05:57:01.142Z,21.90
2022-10-16T05:58:02.852Z,21.89
2022-10-16T05:59:06.052Z,21.90
2022-10-16T06:00:08.772Z,21.90
2022-10-16T06:01:18.286Z,21.90
2022-10-16T06:02:20.104Z,21.88
2022-10-16T06:03:22.153Z,21.87
2022-10-16T06:04:24.056Z,21.87
2022-10-16T06:05:27.084Z,21.88
2022-10-16T06:06:30.610Z,21.87
2022-10-16T06:07:36.843Z,21.90
2022-10-16T06:08:39.424Z,21.89
2022-10-16T06:09:41.232Z,21.88
2022-10-16T06:10:44.613Z,21.87
2022-10-16T06:11:46.415Z,21.89
2022-10-16T06:12:48.115Z,21.88
2022-10-16T06:13:59.279Z,21.85
2022-10-16T06:15:01.005Z,21.86
2022-10-16T06:16:04.544Z,21.85
2022-10-16T06:17:06.239Z,21.84
2022-10-16T06:18:08.316Z,21.85
2022-10-16T06:19:10.358Z,21.85
2022-10-16T06:20:12.294Z,21.86
2022-10-16T06:21:19.737Z,21.87
2022-10-16T06:22:21.456Z,21.85
2022-10-16T06:23:23.805Z,21.85
2022-10-16T06:24:26.631Z,21.86
2022-10-16T06:25:28.352Z,21.85
2022-10-16T06:26:31.754Z,21.86
2022-10-16T06:27:33.652Z,21.85
2022-10-16T06:28:35.550Z,21.84
2022-10-16T06:29:37.337Z,21.84
2022-10-16T06:30:39.232Z,21.86
2022-10-16T06:31:40.983Z,21.85
2022-10-16T06:32:42.834Z,21.86
2022-10-16T06:33:46.478Z,21.86
2022-10-16T06:34:48.174Z,21.85
2022-10-16T06:35:49.913Z,21.87
2022-10-16T06:36:51.659Z,21.86
2022-10-16T06:37:54.480Z,21.87
2022-10-16T06:38:56.371Z,21.88
2022-10-16T06:39:58.068Z,21.87
2022-10-16T06:40:59.991Z,21.87
2022-10-16T06:42:01.749Z,21.88
2022-10-16T06:43:03.508Z,21.88
2022-10-16T06:44:08.725Z,21.89
2022-10-16T06:45:10.789Z,21.87
2022-10-16T06:46:15.890Z,21.88
2022-10-16T06:47:17.624Z,21.88
2022-10-16T06:48:19.411Z,21.87
2022-10-16T06:49:23.399Z,21.87
2022-10-16T06:50:25.150Z,21.87
2022-10-16T06:51:27.087Z,21.86
2022-10-16T06:52:31.931Z,21.87
2022-10-16T06:53:40.069Z,21.88
2022-10-16T06:54:51.337Z,21.86
2022-10-16T06:55:53.073Z,21.86
2022-10-16T06:56:55.836Z,21.85
2022-10-16T06:57:57.540Z,21.85
2022-10-16T06:58:59.623Z,21.84
2022-10-16T07:00:01.353Z,21.85
2022-10-16T07:01:03.567Z,21.87
2022-10-16T07:02:05.340Z,21.86
2022-10-16T07:03:07.069Z,21.86
2022-10-16T07:04:08.834Z,21.86
2022-10-16T07:05:10.578Z,21.87
2022-10-16T07:06:19.552Z,21.89
2022-10-16T07:07:21.346Z,21.88
2022-10-16T07:08:23.602Z,21.87
2022-10-16T07:09:25.539Z,21.88
2022-10-16T07:10:27.224Z,21.88
2022-10-16T07:11:28.972Z,21.89
2022-10-16T07:12:30.667Z,21.90
2022-10-16T07:13:36.109Z,21.91
2022-10-16T07:14:37.872Z,21.91
2022-10-16T07:15:39.776Z,21.90
2022-10-16T07:16:41.545Z,21.90
2022-10-16T07:17:43.241Z,21.91
2022-10-16T07:18:47.397Z,21.91
2022-10-16T07:19:49.176Z,21.91
2022-10-16T07:20:50.874Z,21.92
2022-10-16T07:21:52.576Z,21.92
2022-10-16T07:22:54.266Z,21.91
2022-10-16T07:24:02.024Z,21.93
2022-10-16T07:25:04.301Z,21.92
2022-10-16T07:26:07.277Z,21.92
2022-10-16T07:27:09.046Z,21.93
2022-10-16T07:28:10.928Z,21.92
2022-10-16T07:29:20.772Z,21.92
2022-10-16T07:30:22.487Z,21.92
2022-10-16T07:31:24.936Z,21.92
2022-10-16T07:32:27.022Z,21.95
2022-10-16T07:33:29.697Z,21.94
2022-10-16T07:34:31.483Z,21.96
2022-10-16T07:35:33.177Z,21.96
2022-10-16T07:36:35.378Z,21.97
2022-10-16T07:37:37.130Z,21.97
2022-10-16T07:38:39.309Z,21.97
2022-10-16T07:39:41.106Z,21.98
2022-10-16T07:40:42.937Z,21.99
2022-10-16T07:41:44.907Z,22.00
2022-10-16T07:42:46.613Z,22.02
2022-10-16T07:43:50.782Z,22.00
2022-10-16T07:44:52.565Z,22.01
2022-10-16T07:45:55.915Z,22.02
2022-10-16T07:46:58.516Z,22.03
2022-10-16T07:48:00.222Z,22.04
2022-10-16T07:49:02.014Z,22.04
2022-10-16T07:50:04.192Z,22.04
2022-10-16T07:51:08.068Z,22.05
2022-10-16T07:52:09.786Z,22.06
2022-10-16T07:53:12.796Z,22.05
2022-10-16T07:54:14.647Z,22.06
2022-10-16T07:55:16.359Z,22.07
2022-10-16T07:56:20.006Z,22.09
2022-10-16T07:57:21.769Z,22.08
2022-10-16T07:58:23.520Z,22.09
2022-10-16T07:59:25.290Z,22.10
2022-10-16T08:00:26.983Z,22.10
2022-10-16T08:01:28.833Z,22.09
2022-10-16T08:02:32.904Z,22.13
2022-10-16T08:03:35.339Z,22.12
2022-10-16T08:04:37.051Z,22.14
2022-10-16T08:05:38.822Z,22.14
2022-10-16T08:06:42.256Z,22.16
2022-10-16T08:07:43.975Z,22.17
2022-10-16T08:08:45.690Z,22.18
2022-10-16T08:09:51.425Z,22.21
2022-10-16T08:10:53.490Z,22.23
2022-10-16T08:12:24.275Z,22.26
2022-10-16T08:13:27.368Z,22.29
2022-10-16T08:14:29.066Z,22.28
2022-10-16T08:15:30.810Z,22.32
2022-10-16T08:16:32.525Z,22.33
2022-10-16T08:17:34.261Z,22.35
2022-10-16T08:18:37.942Z,22.37
2022-10-16T08:19:39.811Z,22.37
2022-10-16T08:20:44.122Z,22.40
2022-10-16T08:21:48.979Z,22.42
2022-10-16T08:22:50.749Z,22.43
2022-10-16T08:23:57.147Z,22.46
2022-10-16T08:25:00.252Z,22.48
2022-10-16T08:26:08.114Z,22.53
2022-10-16T08:27:09.985Z,22.56
2022-10-16T08:28:12.252Z,22.57
2022-10-16T08:29:15.355Z,22.61
2022-10-16T08:30:19.975Z,22.66
2022-10-16T08:31:22.955Z,22.68
2022-10-16T08:32:27.504Z,22.69
2022-10-16T08:33:29.521Z,22.71
2022-10-16T08:34:31.222Z,22.75
2022-10-16T08:35:32.938Z,22.79
2022-10-16T08:36:34.675Z,22.85
2022-10-16T08:37:37.060Z,22.91
2022-10-16T08:38:39.979Z,22.94
2022-10-16T08:39:41.810Z,22.97
2022-10-16T08:40:43.864Z,23.00
2022-10-16T08:42:07.644Z,23.03
2022-10-16T08:43:24.436Z,23.04
2022-10-16T08:44:44.477Z,23.03
2022-10-16T08:46:21.229Z,23.06
2022-10-16T08:47:54.917Z,23.06
2022-10-16T08:49:00.274Z,23.08
2022-10-16T08:50:19.522Z,23.07
2022-10-16T08:51:30.588Z,23.09
2022-10-16T08:52:39.903Z,23.09
2022-10-16T08:54:00.255Z,23.10
2022-10-16T08:55:04.217Z,23.09
2022-10-16T08:56:06.647Z,23.11
2022-10-16T08:57:24.573Z,23.11
2022-10-16T08:58:31.409Z,23.13
2022-10-16T08:59:33.114Z,23.12
2022-10-16T09:00:35.046Z,23.13
2022-10-16T09:01:48.510Z,23.15
2022-10-16T09:03:23.191Z,23.16
2022-10-16T09:04:56.700Z,23.14
2022-10-16T09:06:31.789Z,23.15
2022-10-16T09:08:28.710Z,23.15
2022-10-16T09:09:54.667Z,23.16
2022-10-16T09:11:37.620Z,23.14
2022-10-16T09:13:21.463Z,23.14
2022-10-16T09:14:59.834Z,23.12
2022-10-16T09:16:23.196Z,23.13
2022-10-16T09:17:36.915Z,23.13
2022-10-16T09:18:55.843Z,23.12
2022-10-16T09:20:48.060Z,23.14
2022-10-16T09:21:50.155Z,23.13
2022-10-16T09:23:15.720Z,23.17
2022-10-16T09:24:28.515Z,23.20
2022-10-16T09:25:33.581Z,23.23
2022-10-16T09:26:35.362Z,23.22
2022-10-16T09:27:37.991Z,23.26
2022-10-16T09:28:40.322Z,23.28
2022-10-16T09:29:42.251Z,23.28
2022-10-16T09:30:45.008Z,23.32
2022-10-16T09:31:47.645Z,23.35
2022-10-16T09:32:54.360Z,23.37
2022-10-16T09:34:07.235Z,23.41
2022-10-16T09:35:40.808Z,23.46
2022-10-16T09:36:47.043Z,23.51
2022-10-16T09:37:55.241Z,23.56
2022-10-16T09:39:12.919Z,23.70
2022-10-16T09:40:31.336Z,23.92
2022-10-16T09:41:40.405Z,24.16
2022-10-16T09:42:42.347Z,24.35
2022-10-16T09:43:58.523Z,24.60
2022-10-16T09:45:00.261Z,24.76
2022-10-16T09:46:08.330Z,24.93
2022-10-16T09:47:18.922Z,25.09
2022-10-16T09:48:21.826Z,25.25
2022-10-16T09:49:27.795Z,25.52
2022-10-16T09:50:29.912Z,25.85
2022-10-16T09:51:38.386Z,26.29
2022-10-16T09:52:40.132Z,26.51
2022-10-16T09:53:47.447Z,26.62
2022-10-16T09:55:13.356Z,26.70
2022-10-16T09:56:36.566Z,26.92
2022-10-16T09:57:38.276Z,27.08
2022-10-16T09:58:45.456Z,27.30
2022-10-16T09:59:59.398Z,27.54
2022-10-16T10:01:01.719Z,27.85
2022-10-16T10:02:14.366Z,28.23
2022-10-16T10:03:38.899Z,28.58
2022-10-16T10:04:51.076Z,28.77
2022-10-16T10:05:53.022Z,28.99
2022-10-16T10:06:57.887Z,29.22
2022-10-16T10:08:07.112Z,29.62
2022-10-16T10:09:25.554Z,30.12
2022-10-16T10:10:31.489Z,30.68
2022-10-16T10:11:48.955Z,31.23
2022-10-16T10:12:51.097Z,31.64
2022-10-16T10:13:52.851Z,32.05
2022-10-16T10:14:58.923Z,32.43
2022-10-16T10:16:00.684Z,32.82
2022-10-16T10:17:17.310Z,33.23
2022-10-16T10:18:23.869Z,33.59
2022-10-16T10:19:28.154Z,33.90
2022-10-16T10:20:35.673Z,34.20
2022-10-16T10:21:39.541Z,34.34
2022-10-16T10:22:47.578Z,34.35
2022-10-16T10:23:57.929Z,34.29
2022-10-16T10:25:14.498Z,34.15
2022-10-16T10:26:25.017Z,34.06
2022-10-16T10:27:53.813Z,33.83
2022-10-16T10:29:41.023Z,33.77
2022-10-16T10:30:48.639Z,33.68
2022-10-16T10:32:12.402Z,33.43
2022-10-16T10:33:46.275Z,33.18
2022-10-16T10:35:03.879Z,32.89
2022-10-16T10:36:31.432Z,32.58
2022-10-16T10:37:53.280Z,32.26
2022-10-16T10:39:04.549Z,32.03
2022-10-16T10:40:47.507Z,31.67
2022-10-16T10:42:07.370Z,31.49
2022-10-16T10:43:39.024Z,31.29
2022-10-16T10:45:27.370Z,30.93
2022-10-16T10:47:06.020Z,30.66
2022-10-16T10:48:54.182Z,30.36
2022-10-16T10:50:44.654Z,30.00
2022-10-16T10:52:34.851Z,29.78
2022-10-16T10:53:55.987Z,29.55
2022-10-16T10:55:17.127Z,29.37
2022-10-16T10:56:50.901Z,29.18
2022-10-16T10:58:32.231Z,29.01
2022-10-16T10:59:54.860Z,28.81
2022-10-16T11:01:14.393Z,28.65
2022-10-16T11:02:23.065Z,28.53
2022-10-16T11:03:42.562Z,28.41
2022-10-16T11:05:28.382Z,28.23
2022-10-16T11:06:45.387Z,28.11
2022-10-16T11:08:05.924Z,27.99
2022-10-16T11:09:33.507Z,27.87
2022-10-16T11:10:54.694Z,27.79
2022-10-16T11:12:32.920Z,27.75
2022-10-16T11:13:59.183Z,27.76
2022-10-16T11:15:21.405Z,27.82
2022-10-16T11:16:36.472Z,27.89
2022-10-16T11:17:51.429Z,27.98
2022-10-16T11:19:26.975Z,28.32
2022-10-16T11:20:43.825Z,28.66
2022-10-16T11:22:17.918Z,28.94
2022-10-16T11:23:57.929Z,29.29
2022-10-16T11:25:03.918Z,29.52
2022-10-16T11:26:26.057Z,29.71
2022-10-16T11:27:59.717Z,29.95
2022-10-16T11:29:08.912Z,30.24
2022-10-16T11:30:25.298Z,30.41
2022-10-16T11:31:39.681Z,30.62
2022-10-16T11:33:17.540Z,30.78
2022-10-16T11:34:22.946Z,31.01
2022-10-16T11:35:37.318Z,31.15
2022-10-16T11:36:51.026Z,31.31
2022-10-16T11:37:57.995Z,31.48
2022-10-16T11:39:23.851Z,31.58
2022-10-16T11:40:42.513Z,31.72
2022-10-16T11:42:26.364Z,31.81
2022-10-16T11:43:41.909Z,31.91
2022-10-16T11:45:05.982Z,31.87
2022-10-16T11:46:22.437Z,31.85
2022-10-16T11:47:59.198Z,31.80
2022-10-16T11:49:13.660Z,31.72
2022-10-16T11:51:06.085Z,31.55
2022-10-16T11:52:45.703Z,31.43
2022-10-16T11:53:58.289Z,31.34
2022-10-16T11:55:17.653Z,31.22
2022-10-16T11:56:22.274Z,31.12
2022-10-16T11:57:32.934Z,31.03
2022-10-16T11:58:37.623Z,30.94
2022-10-16T11:59:49.723Z,30.84
2022-10-16T12:01:09.572Z,30.70
2022-10-16T12:02:45.249Z,30.54
2022-10-16T12:04:07.596Z,30.41
2022-10-16T12:06:03.595Z,30.20
2022-10-16T12:07:12.860Z,30.13
2022-10-16T12:08:17.249Z,30.02
2022-10-16T12:09:35.519Z,29.91
2022-10-16T12:11:41.265Z,29.78
2022-10-16T12:12:46.264Z,29.72
2022-10-16T12:13:49.127Z,29.65
2022-10-16T12:15:22.472Z,29.55
2022-10-16T12:16:58.358Z,29.52
2022-10-16T12:18:00.937Z,29.45
2022-10-16T12:19:15.129Z,29.43
2022-10-16T12:20:22.744Z,29.41
2022-10-16T12:21:32.513Z,29.39
2022-10-16T12:22:38.050Z,29.36
2022-10-16T12:23:58.940Z,29.36
2022-10-16T12:25:00.794Z,29.36
2022-10-16T12:26:03.626Z,29.37
2022-10-16T12:27:24.875Z,29.38
2022-10-16T12:28:47.477Z,29.42
2022-10-16T12:30:01.364Z,29.47
2022-10-16T12:31:10.947Z,29.52
2022-10-16T12:32:46.145Z,29.52
2022-10-16T12:34:04.126Z,29.53
2022-10-16T12:35:20.904Z,29.52
2022-10-16T12:36:36.202Z,29.49
2022-10-16T12:37:39.508Z,29.47
2022-10-16T12:38:49.920Z,29.44
2022-10-16T12:39:55.494Z,29.41
2022-10-16T12:41:13.234Z,29.39
2022-10-16T12:42:31.136Z,29.43
2022-10-16T12:43:48.885Z,29.46
2022-10-16T12:44:51.213Z,29.49
2022-10-16T12:46:09.948Z,29.48
2022-10-16T12:47:22.305Z,29.45
2022-10-16T12:48:29.195Z,29.43
2022-10-16T12:49:51.568Z,29.38
2022-10-16T12:50:53.401Z,29.35
2022-10-16T12:51:56.068Z,29.30
2022-10-16T12:52:59.052Z,29.28
2022-10-16T12:54:31.175Z,29.25
2022-10-16T12:55:53.876Z,29.17
2022-10-16T12:57:21.827Z,29.15
2022-10-16T12:58:41.128Z,29.10
2022-10-16T13:00:01.865Z,29.05
2022-10-16T13:01:30.733Z,29.01
2022-10-16T13:02:47.056Z,28.93
2022-10-16T13:04:28.423Z,28.89
2022-10-16T13:05:50.955Z,28.83
2022-10-16T13:07:03.600Z,28.80
2022-10-16T13:08:18.210Z,28.73
2022-10-16T13:09:48.609Z,28.68
2022-10-16T13:11:11.367Z,28.64
2022-10-16T13:12:50.111Z,28.54
2022-10-16T13:14:29.346Z,28.47
2022-10-16T13:15:59.960Z,28.38
2022-10-16T13:17:23.672Z,28.33
2022-10-16T13:19:15.603Z,28.26
2022-10-16T13:20:50.779Z,28.17
2022-10-16T13:22:20.831Z,28.11
2022-10-16T13:23:37.497Z,28.05
2022-10-16T13:24:47.967Z,28.00
2022-10-16T13:26:25.091Z,27.93
2022-10-16T13:28:05.025Z,27.86
2022-10-16T13:29:07.034Z,27.82
2022-10-16T13:30:25.761Z,27.77
2022-10-16T13:31:34.289Z,27.73
2022-10-16T13:32:36.236Z,27.68
2022-10-16T13:33:43.036Z,27.65
2022-10-16T13:34:50.107Z,27.62
2022-10-16T13:35:58.096Z,27.56
2022-10-16T13:36:59.847Z,27.53
2022-10-16T13:38:23.615Z,27.48
2022-10-16T13:39:30.876Z,27.43
2022-10-16T13:40:33.845Z,27.39
2022-10-16T13:41:35.584Z,27.35
2022-10-16T13:42:37.358Z,27.32
2022-10-16T13:43:57.067Z,27.29
2022-10-16T13:44:58.893Z,27.25
2022-10-16T13:46:08.465Z,27.22
2022-10-16T13:47:24.443Z,27.19
2022-10-16T13:48:27.070Z,27.16
2022-10-16T13:49:28.991Z,27.13
2022-10-16T13:50:30.797Z,27.09
2022-10-16T13:51:34.024Z,27.09
2022-10-16T13:52:35.799Z,27.06
2022-10-16T13:53:37.830Z,27.03
2022-10-16T13:54:39.642Z,27.01
2022-10-16T13:55:41.668Z,26.99
2022-10-16T13:56:43.432Z,26.98
2022-10-16T13:57:46.374Z,26.95
2022-10-16T13:59:04.061Z,26.91
2022-10-16T14:00:30.792Z,26.87
2022-10-16T14:01:36.545Z,26.88
2022-10-16T14:02:41.359Z,26.86
2022-10-16T14:03:43.723Z,26.83
2022-10-16T14:04:47.195Z,26.83
2022-10-16T14:06:07.503Z,26.84
2022-10-16T14:07:26.108Z,26.85
2022-10-16T14:08:31.640Z,26.86
2022-10-16T14:09:35.186Z,26.86
2022-10-16T14:10:37.130Z,26.86
2022-10-16T14:12:02.456Z,26.84
2022-10-16T14:13:08.186Z,26.85
2022-10-16T14:14:13.494Z,26.84
2022-10-16T14:15:20.704Z,26.84
2022-10-16T14:16:31.118Z,26.82
2022-10-16T14:17:36.526Z,26.82
2022-10-16T14:18:41.078Z,26.81
2022-10-16T14:19:56.902Z,26.79
2022-10-16T14:21:07.629Z,26.78
2022-10-16T14:22:41.335Z,26.75
2022-10-16T14:23:44.294Z,26.76
2022-10-16T14:24:46.033Z,26.75
2022-10-16T14:25:48.119Z,26.72
2022-10-16T14:26:51.174Z,26.70
2022-10-16T14:28:14.370Z,26.71
2022-10-16T14:29:19.850Z,26.70
2022-10-16T14:30:23.377Z,26.68
2022-10-16T14:31:34.437Z,26.68
2022-10-16T14:32:36.268Z,26.65
2022-10-16T14:33:38.018Z,26.65
2022-10-16T14:34:41.406Z,26.64
2022-10-16T14:35:45.502Z,26.64
2022-10-16T14:36:47.315Z,26.63
2022-10-16T14:37:54.037Z,26.63
2022-10-16T14:39:06.011Z,26.61
2022-10-16T14:40:16.585Z,26.58
2022-10-16T14:41:24.613Z,26.58
2022-10-16T14:42:27.047Z,26.55
2022-10-16T14:43:39.826Z,26.54
2022-10-16T14:44:42.032Z,26.55
2022-10-16T14:45:44.141Z,26.53
2022-10-16T14:46:46.809Z,26.53